Time;durP1;ratioP1;P1;durP2;ratioP2;P2;SDS_P1;SDS_P2;PMS_P1;PMS_P2;Temp;Humidity;BMP_temperature;BMP_pressure;BME280_temperature;BME280_humidity;BME280_pressure;Samples;Min_cycle;Max_cycle;Signal;HPM_P1;HPM_P2
2021/08/16 00:00:47;;;;;;;9.02;7.30;;;;;;;17.96;100.00;98288.22;4992336;28;20471;-70
2021/08/16 00:03:13;;;;;;;8.23;6.80;;;;;;;18.01;100.00;98276.50;4985144;28;20469;-70
2021/08/16 00:05:39;;;;;;;13.45;7.07;;;;;;;18.09;100.00;98262.28;4980535;28;20034;-70
2021/08/16 00:08:09;;;;;;;11.23;6.90;;;;;;;18.08;100.00;98260.66;4974070;28;20403;-71
2021/08/16 00:10:34;;;;;;;15.52;8.90;;;;;;;18.24;100.00;98258.00;4980237;28;20026;-70
2021/08/16 00:13:00;;;;;;;9.32;7.30;;;;;;;18.30;100.00;98255.00;4988352;28;20518;-70
2021/08/16 00:15:25;;;;;;;11.15;8.02;;;;;;;18.26;100.00;98253.06;4988721;28;20121;-70
2021/08/16 00:17:50;;;;;;;10.57;7.90;;;;;;;18.22;100.00;98262.91;4974837;28;20030;-70
2021/08/16 00:20:16;;;;;;;11.75;8.43;;;;;;;18.19;100.00;98256.06;4992642;28;20034;-70
2021/08/16 00:22:41;;;;;;;13.35;8.40;;;;;;;18.12;100.00;98260.94;4993055;28;20026;-70
2021/08/16 00:25:07;;;;;;;13.48;7.40;;;;;;;17.98;100.00;98248.84;4977313;28;20543;-71
2021/08/16 00:27:32;;;;;;;13.82;7.43;;;;;;;18.00;100.00;98257.56;4991713;28;20081;-70
2021/08/16 00:29:57;;;;;;;10.45;7.63;;;;;;;17.89;100.00;98253.97;4996572;28;20390;-71
2021/08/16 00:32:23;;;;;;;15.77;7.47;;;;;;;17.84;100.00;98246.56;4977826;28;20022;-70
2021/08/16 00:34:48;;;;;;;9.68;6.25;;;;;;;17.86;100.00;98238.91;4977954;28;20070;-70
2021/08/16 00:37:13;;;;;;;8.60;6.97;;;;;;;17.79;100.00;98231.97;4989446;28;20392;-70
2021/08/16 00:39:38;;;;;;;8.82;6.70;;;;;;;17.81;100.00;98246.25;4993295;28;20034;-70
2021/08/16 00:42:09;;;;;;;9.98;7.32;;;;;;;17.70;100.00;98232.47;4995494;28;20400;-71
2021/08/16 00:44:34;;;;;;;14.00;8.50;;;;;;;17.88;100.00;98241.38;4983272;28;20030;-70
2021/08/16 00:47:00;;;;;;;13.10;7.97;;;;;;;17.91;100.00;98243.59;4995563;28;20476;-70
2021/08/16 00:49:26;;;;;;;11.57;7.70;;;;;;;17.81;100.00;98243.50;4995713;28;20369;-70
2021/08/16 00:51:51;;;;;;;12.27;8.00;;;;;;;17.72;100.00;98237.69;4995848;28;20084;-71
2021/08/16 00:54:16;;;;;;;8.50;7.60;;;;;;;17.69;100.00;98233.56;4980911;28;20034;-70
2021/08/16 00:56:42;;;;;;;18.65;8.13;;;;;;;17.67;100.00;98238.47;4985315;28;20392;-70
2021/08/16 00:59:11;;;;;;;11.85;7.57;;;;;;;17.69;100.00;98241.78;4978404;28;20061;-70
2021/08/16 01:01:37;;;;;;;12.55;6.80;;;;;;;17.59;100.00;98219.81;4994988;28;20553;-71
2021/08/16 01:04:02;;;;;;;12.93;7.82;;;;;;;17.60;100.00;98229.66;4990181;28;20034;-70
2021/08/16 01:06:28;;;;;;;11.38;7.75;;;;;;;17.61;100.00;98227.78;4995948;28;20103;-70
2021/08/16 01:08:54;;;;;;;14.18;7.50;;;;;;;17.65;100.00;98224.22;4986441;28;20031;-70
2021/08/16 01:11:20;;;;;;;17.15;7.82;;;;;;;17.63;100.00;98231.91;4989034;28;20037;-70
2021/08/16 01:13:46;;;;;;;10.25;7.57;;;;;;;17.71;100.00;98228.66;4983869;28;20027;-71
2021/08/16 01:16:15;;;;;;;9.52;7.22;;;;;;;17.70;100.00;98223.44;4993869;28;20028;-71
2021/08/16 01:18:40;;;;;;;12.73;7.70;;;;;;;17.73;100.00;98236.59;4978284;28;20392;-71
2021/08/16 01:21:08;;;;;;;13.73;7.03;;;;;;;17.72;100.00;98238.50;4995034;28;20278;-70
2021/08/16 01:23:34;;;;;;;9.20;7.05;;;;;;;17.71;100.00;98234.13;4981106;28;20023;-70
2021/08/16 01:26:00;;;;;;;14.00;6.82;;;;;;;17.66;100.00;98233.28;4995769;28;20054;-70
2021/08/16 01:28:26;;;;;;;9.55;6.68;;;;;;;17.55;100.00;98226.06;4996039;28;20033;-70
2021/08/16 01:30:55;;;;;;;11.40;6.97;;;;;;;17.67;100.00;98241.22;5008663;28;20049;-71
2021/08/16 01:33:21;;;;;;;13.45;7.45;;;;;;;17.70;100.00;98232.47;4992133;28;20085;-71
2021/08/16 01:35:47;;;;;;;12.30;7.93;;;;;;;17.80;100.00;98228.19;4984599;28;20516;-71
2021/08/16 01:38:12;;;;;;;11.00;7.95;;;;;;;17.82;100.00;98231.50;4980110;28;20034;-71
2021/08/16 01:40:37;;;;;;;17.60;9.30;;;;;;;17.92;100.00;98231.53;4987730;28;20034;-70
2021/08/16 01:43:03;;;;;;;12.63;8.55;;;;;;;18.01;100.00;98227.22;4994696;28;20379;-71
2021/08/16 01:45:30;;;;;;;13.00;8.85;;;;;;;18.06;100.00;98235.47;4976931;28;20058;-71
2021/08/16 01:47:55;;;;;;;13.02;8.98;;;;;;;18.09;100.00;98226.72;4980082;28;20053;-71
2021/08/16 01:50:21;;;;;;;11.05;7.68;;;;;;;18.17;100.00;98223.47;4992634;28;20030;-71
2021/08/16 01:52:46;;;;;;;13.10;6.80;;;;;;;18.15;100.00;98222.91;4993831;28;20500;-70
2021/08/16 01:55:11;;;;;;;19.30;6.93;;;;;;;18.10;100.00;98216.56;4980549;28;20034;-70
2021/08/16 01:57:37;;;;;;;11.38;6.40;;;;;;;18.06;100.00;98220.97;4975424;28;20019;-70
2021/08/16 02:00:03;;;;;;;10.07;6.80;;;;;;;17.94;100.00;98221.16;4993482;28;20034;-70
2021/08/16 02:02:29;;;;;;;10.48;7.45;;;;;;;17.87;100.00;98213.19;4994550;28;20157;-71
2021/08/16 02:04:54;;;;;;;17.02;7.97;;;;;;;17.78;100.00;98216.66;4985615;28;20118;-70
2021/08/16 02:07:19;;;;;;;13.50;7.30;;;;;;;17.78;100.00;98211.19;4978967;28;20396;-70
2021/08/16 02:09:45;;;;;;;11.55;7.65;;;;;;;17.76;100.00;98227.84;4974492;28;20034;-70
2021/08/16 02:12:10;;;;;;;13.82;7.60;;;;;;;17.74;100.00;98221.84;4980152;28;20031;-70
2021/08/16 02:14:36;;;;;;;12.05;7.20;;;;;;;17.79;100.00;98223.75;4974954;28;20042;-70
2021/08/16 02:17:01;;;;;;;12.80;7.72;;;;;;;17.81;100.00;98227.91;4975134;28;20014;-70
2021/08/16 02:19:28;;;;;;;16.10;8.23;;;;;;;17.83;100.00;98225.75;4977008;28;20030;-71
2021/08/16 02:21:53;;;;;;;10.98;7.57;;;;;;;17.90;100.00;98239.22;5055310;23;20050;-72
2021/08/16 02:24:19;;;;;;;10.40;7.55;;;;;;;17.82;100.00;98221.38;4993864;28;20464;-72
2021/08/16 02:26:44;;;;;;;11.43;8.23;;;;;;;17.82;100.00;98204.13;4978774;28;20054;-72
2021/08/16 02:29:13;;;;;;;12.63;8.10;;;;;;;18.29;100.00;98247.06;4992631;28;20029;-73
2021/08/16 02:31:38;;;;;;;12.13;8.35;;;;;;;18.14;100.00;98226.72;4993470;28;20030;-73
2021/08/16 02:34:04;;;;;;;16.10;7.95;;;;;;;18.20;100.00;98245.94;4993257;28;20029;-73
2021/08/16 02:36:29;;;;;;;15.32;8.45;;;;;;;18.20;100.00;98233.06;4993630;28;20468;-73
2021/08/16 02:38:55;;;;;;;14.18;7.25;;;;;;;18.42;100.00;98248.47;4993760;28;20089;-73
2021/08/16 02:41:20;;;;;;;12.70;7.50;;;;;;;18.44;100.00;98255.34;4975943;28;20060;-73
2021/08/16 02:43:46;;;;;;;13.82;7.72;;;;;;;18.34;100.00;98230.66;4993416;28;20064;-73
2021/08/16 02:46:11;;;;;;;13.20;8.05;;;;;;;18.51;100.00;98255.09;4993090;28;20041;-73
2021/08/16 02:48:36;;;;;;;10.27;7.50;;;;;;;18.47;100.00;98248.50;4976460;28;20018;-72
2021/08/16 02:51:02;;;;;;;16.27;8.45;;;;;;;18.54;100.00;98255.38;4983618;28;20530;-73
2021/08/16 02:53:27;;;;;;;16.70;8.52;;;;;;;18.54;100.00;98240.84;4974534;28;20050;-73
2021/08/16 02:55:52;;;;;;;14.25;7.80;;;;;;;18.70;100.00;98258.16;4991748;28;20034;-73
2021/08/16 02:58:18;;;;;;;8.43;6.50;;;;;;;18.90;100.00;98265.66;4993315;28;20026;-73
2021/08/16 03:00:43;;;;;;;11.10;7.60;;;;;;;18.99;100.00;98281.31;4993110;28;20028;-73
2021/08/16 03:03:08;;;;;;;12.45;7.22;;;;;;;19.03;100.00;98276.91;4992920;28;20060;-73
2021/08/16 03:05:34;;;;;;;12.55;7.80;;;;;;;18.97;100.00;98261.56;4992380;28;20038;-73
2021/08/16 03:07:59;;;;;;;14.68;7.75;;;;;;;18.86;100.00;98264.53;4991185;28;20436;-73
2021/08/16 03:10:24;;;;;;;16.85;8.02;;;;;;;18.79;100.00;98259.34;4975418;28;20113;-73
2021/08/16 03:12:50;;;;;;;11.65;7.35;;;;;;;18.80;100.00;98280.16;4992929;28;20033;-73
2021/08/16 03:15:15;;;;;;;13.07;7.60;;;;;;;18.72;100.00;98259.53;4993095;28;20033;-73
2021/08/16 03:17:41;;;;;;;12.60;6.57;;;;;;;18.86;100.00;98286.47;4974670;28;20552;-74
2021/08/16 03:20:07;;;;;;;16.60;7.32;;;;;;;18.79;100.00;98281.25;4992723;28;20042;-73
2021/08/16 03:22:32;;;;;;;9.85;7.22;;;;;;;18.82;100.00;98286.19;4992258;28;20034;-73
2021/08/16 03:24:58;;;;;;;18.02;8.25;;;;;;;18.79;100.00;98292.22;4992901;28;20487;-73
2021/08/16 03:27:24;;;;;;;14.13;7.80;;;;;;;18.74;100.00;98294.91;4977842;28;20029;-73
2021/08/16 03:29:49;;;;;;;13.70;7.90;;;;;;;18.64;100.00;98287.47;4956283;28;20019;-73
2021/08/16 03:32:14;;;;;;;11.68;7.75;;;;;;;18.81;100.00;98311.94;4989723;28;20022;-74
2021/08/16 03:34:40;;;;;;;12.68;7.35;;;;;;;18.57;100.00;98268.53;4992565;28;20026;-73
2021/08/16 03:37:06;;;;;;;11.57;7.28;;;;;;;18.86;100.00;98298.25;4987004;28;20026;-73
2021/08/16 03:39:31;;;;;;;10.27;7.40;;;;;;;19.00;100.00;98310.38;4975300;28;20472;-73
2021/08/16 03:41:56;;;;;;;12.90;7.35;;;;;;;19.06;100.00;98302.97;4992600;28;20110;-73
2021/08/16 03:44:22;;;;;;;13.80;7.97;;;;;;;19.15;100.00;98323.28;4991783;28;20413;-73
2021/08/16 03:46:47;;;;;;;11.85;7.10;;;;;;;19.01;100.00;98294.72;4992365;28;20030;-73
2021/08/16 03:49:13;;;;;;;11.60;7.70;;;;;;;19.00;100.00;98290.34;4991522;28;20026;-73
2021/08/16 03:51:38;;;;;;;12.60;7.32;;;;;;;19.20;100.00;98323.31;4992375;28;20062;-73
2021/08/16 03:54:03;;;;;;;11.10;7.05;;;;;;;19.10;100.00;98317.81;4974807;28;20026;-73
2021/08/16 03:56:29;;;;;;;17.35;7.43;;;;;;;19.07;100.00;98312.84;4989559;28;20062;-73
2021/08/16 03:58:54;;;;;;;9.23;7.05;;;;;;;19.02;100.00;98319.16;4974736;28;20036;-73
2021/08/16 04:01:19;;;;;;;11.23;6.80;;;;;;;19.17;100.00;98339.47;4992294;28;20022;-73
2021/08/16 04:03:45;;;;;;;10.10;6.60;;;;;;;19.12;100.00;98317.50;4992389;28;20031;-73
2021/08/16 04:06:10;;;;;;;11.02;7.10;;;;;;;19.52;100.00;98337.88;4992224;28;20029;-73
2021/08/16 04:08:39;;;;;;;18.23;7.22;;;;;;;19.66;100.00;98337.09;4992561;28;20068;-73
2021/08/16 04:11:08;;;;;;;8.68;6.63;;;;;;;19.63;98.73;98315.66;4974635;28;20022;-73
2021/08/16 04:13:34;;;;;;;10.52;6.22;;;;;;;19.86;97.74;98339.03;4992111;28;20034;-73
2021/08/16 04:15:59;;;;;;;10.10;6.72;;;;;;;19.74;96.67;98310.19;4992431;28;20073;-73
2021/08/16 04:18:25;;;;;;;12.57;6.82;;;;;;;19.81;97.46;98319.00;4989772;28;20076;-73
2021/08/16 04:20:50;;;;;;;12.98;7.07;;;;;;;19.67;97.50;98307.72;4970592;28;20030;-74
2021/08/16 04:23:15;;;;;;;10.38;6.70;;;;;;;19.60;97.70;98312.66;4990946;28;20030;-76
2021/08/16 04:25:41;;;;;;;12.25;6.72;;;;;;;19.77;97.70;98326.13;4960107;28;20141;-72
2021/08/16 04:28:07;;;;;;;11.40;6.40;;;;;;;19.54;98.06;98311.81;4974589;28;20698;-63
2021/08/16 04:30:32;;;;;;;9.20;7.07;;;;;;;19.63;98.18;98334.06;4993484;28;20039;-68
2021/08/16 04:32:58;;;;;;;13.55;6.55;;;;;;;19.69;97.65;98338.47;4978032;28;20038;-67
2021/08/16 04:35:23;;;;;;;12.38;7.43;;;;;;;19.66;97.58;98349.97;4982516;28;20395;-65
2021/08/16 04:37:48;;;;;;;11.07;7.15;;;;;;;19.61;98.40;98352.69;4993056;28;20114;-75
2021/08/16 04:40:15;;;;;;;10.48;7.07;;;;;;;19.57;98.73;98349.69;4995398;28;20052;-76
2021/08/16 04:42:41;;;;;;;15.05;7.10;;;;;;;19.53;98.99;98351.31;4996416;28;20072;-73
2021/08/16 04:45:09;;;;;;;18.75;7.10;;;;;;;19.66;97.54;98363.69;4985912;28;20046;-75
2021/08/16 04:47:34;;;;;;;15.38;7.68;;;;;;;19.55;97.25;98351.88;4976247;28;20019;-75
2021/08/16 04:49:59;;;;;;;16.13;7.53;;;;;;;19.79;96.63;98368.66;4975741;28;20038;-75
2021/08/16 04:52:25;;;;;;;13.07;7.15;;;;;;;19.60;96.98;98346.41;4992770;28;20143;-75
2021/08/16 04:54:51;;;;;;;13.90;6.60;;;;;;;19.77;95.90;98372.78;4984370;28;20022;-75
2021/08/16 04:57:29;;;;;;;11.15;6.10;;;;;;;19.83;96.58;98375.28;4990271;28;20033;-74
2021/08/16 04:59:54;;;;;;;12.55;6.30;;;;;;;19.77;96.72;98362.63;4981071;28;20100;-76
2021/08/16 05:02:19;;;;;;;10.90;6.20;;;;;;;19.99;94.43;98367.00;5002344;28;20472;-70
2021/08/16 05:04:46;;;;;;;11.18;5.90;;;;;;;19.98;93.44;98370.84;4992684;28;20539;-74
2021/08/16 05:07:12;;;;;;;11.80;6.53;;;;;;;20.17;93.30;98390.34;4980080;28;20041;-75
2021/08/16 05:09:37;;;;;;;14.25;6.53;;;;;;;20.09;91.83;98386.22;4988138;28;20030;-76
2021/08/16 05:12:03;;;;;;;10.65;5.88;;;;;;;20.02;92.50;98378.28;4980049;28;20082;-76
2021/08/16 05:14:29;;;;;;;9.00;5.72;;;;;;;20.06;92.21;98386.78;4979607;28;20498;-76
2021/08/16 05:16:54;;;;;;;14.48;6.43;;;;;;;19.96;92.48;98386.78;4978944;28;20027;-74
2021/08/16 05:19:21;;;;;;;11.20;6.22;;;;;;;19.89;93.01;98357.69;4979076;28;20018;-75
2021/08/16 05:21:46;;;;;;;11.52;6.05;;;;;;;19.79;94.04;98367.84;4996003;28;20038;-75
2021/08/16 05:24:11;;;;;;;8.90;5.72;;;;;;;19.91;93.37;98395.84;4977899;28;20077;-74
2021/08/16 05:26:37;;;;;;;9.48;5.55;;;;;;;19.79;92.32;98365.09;4995326;28;20029;-74
2021/08/16 05:29:02;;;;;;;11.52;5.93;;;;;;;19.97;93.22;98403.00;4987585;28;20546;-72
2021/08/16 05:31:27;;;;;;;11.77;5.70;;;;;;;20.00;92.34;98405.19;4983726;28;20026;-74
2021/08/16 05:33:53;;;;;;;8.70;5.72;;;;;;;19.98;93.01;98398.31;4978925;28;20027;-74
2021/08/16 05:36:18;;;;;;;12.85;5.47;;;;;;;20.14;93.28;98422.75;4963083;28;20125;-73
2021/08/16 05:38:45;;;;;;;9.77;5.47;;;;;;;20.30;91.96;98415.34;4993494;28;20052;-73
2021/08/16 05:41:10;;;;;;;13.55;5.47;;;;;;;20.27;90.63;98396.63;4977172;28;20499;-73
2021/08/16 05:43:36;;;;;;;9.52;5.47;;;;;;;20.09;91.07;98424.66;4993081;28;20037;-74
2021/08/16 05:46:01;;;;;;;11.57;5.28;;;;;;;19.96;92.14;98419.72;4996094;28;20033;-74
2021/08/16 05:48:26;;;;;;;9.70;5.47;;;;;;;19.97;92.21;98435.13;4997643;28;20100;-73
2021/08/16 05:50:52;;;;;;;8.70;5.82;;;;;;;20.05;92.25;98440.88;4993408;28;20392;-74
2021/08/16 05:53:17;;;;;;;12.02;5.75;;;;;;;20.11;91.63;98452.69;4990742;28;20074;-74
2021/08/16 05:55:44;;;;;;;8.23;5.13;;;;;;;20.00;89.10;98438.13;4997532;28;20022;-74
2021/08/16 05:58:10;;;;;;;10.13;5.10;;;;;;;19.97;87.67;98422.22;4989489;28;20109;-74
2021/08/16 06:00:35;;;;;;;6.28;4.47;;;;;;;20.15;87.90;98437.31;4990573;28;20535;-73
2021/08/16 06:03:00;;;;;;;10.43;5.00;;;;;;;20.29;86.26;98457.63;4974998;28;20492;-74
2021/08/16 06:05:26;;;;;;;11.10;5.00;;;;;;;20.43;84.89;98448.84;4973512;28;20069;-74
2021/08/16 06:07:51;;;;;;;11.90;4.35;;;;;;;20.49;83.64;98431.25;4983628;28;20022;-74
2021/08/16 06:10:16;;;;;;;8.38;4.30;;;;;;;20.36;82.26;98447.19;4989997;28;20104;-71
2021/08/16 06:12:42;;;;;;;7.97;4.20;;;;;;;20.41;83.57;98467.50;4993445;28;20100;-73
2021/08/16 06:15:08;;;;;;;10.85;5.25;;;;;;;20.19;82.77;98460.38;4971237;28;20476;-72
2021/08/16 06:17:36;;;;;;;9.43;4.57;;;;;;;20.17;83.20;98470.81;4994023;28;20031;-71
2021/08/16 06:20:01;;;;;;;8.60;4.35;;;;;;;20.36;84.07;98482.09;4992507;28;20026;-71
2021/08/16 06:22:27;;;;;;;9.75;5.05;;;;;;;20.34;84.76;98471.38;4990866;28;20513;-73
2021/08/16 06:24:52;;;;;;;8.63;4.25;;;;;;;20.61;84.46;98488.69;4980142;28;20121;-73
2021/08/16 06:27:18;;;;;;;6.55;4.57;;;;;;;20.62;82.76;98460.09;4984435;28;20047;-71
2021/08/16 06:29:44;;;;;;;8.65;4.90;;;;;;;20.87;81.23;98460.06;4989050;28;20038;-71
2021/08/16 06:32:10;;;;;;;8.38;3.88;;;;;;;21.24;78.63;98483.59;4967754;28;20041;-76
2021/08/16 06:34:39;;;;;;;8.45;4.00;;;;;;;20.96;79.84;98482.31;4977298;28;20030;-77
2021/08/16 06:37:05;;;;;;;9.32;3.92;;;;;;;22.47;75.50;98482.91;4995039;28;20026;-76
2021/08/16 06:39:30;;;;;;;5.25;3.78;;;;;;;23.71;68.51;98472.97;4980828;28;20022;-75
2021/08/16 06:41:57;;;;;;;7.93;4.10;;;;;;;23.30;68.29;98494.78;4991900;28;20396;-73
2021/08/16 06:44:25;;;;;;;7.85;4.32;;;;;;;22.81;71.34;98499.38;4984231;28;20029;-72
2021/08/16 06:46:51;;;;;;;6.38;3.70;;;;;;;21.94;72.97;98483.53;4977016;28;20392;-72
2021/08/16 06:49:16;;;;;;;7.13;3.53;;;;;;;22.13;73.16;98502.16;4984507;28;20035;-74
2021/08/16 06:51:41;;;;;;;11.07;3.60;;;;;;;21.98;72.69;98494.81;4980686;28;20061;-74
2021/08/16 06:54:07;;;;;;;7.38;3.47;;;;;;;23.79;65.87;98491.66;4988228;28;20474;-74
2021/08/16 06:56:33;;;;;;;6.07;3.65;;;;;;;24.02;65.44;98480.81;4974357;28;20023;-75
2021/08/16 06:58:58;;;;;;;10.65;3.42;;;;;;;23.27;66.69;98487.91;4964399;28;20046;-73
2021/08/16 07:01:26;;;;;;;5.65;3.00;;;;;;;22.71;64.44;98494.78;4972968;28;20026;-72
2021/08/16 07:03:52;;;;;;;11.38;2.75;;;;;;;22.05;67.89;98496.13;4989399;28;20105;-75
2021/08/16 07:06:18;;;;;;;6.13;2.90;;;;;;;21.77;68.73;98518.88;4980634;28;20015;-71
2021/08/16 07:08:43;;;;;;;6.18;3.17;;;;;;;21.77;68.83;98519.75;4975490;28;20035;-72
2021/08/16 07:11:09;;;;;;;8.93;3.08;;;;;;;21.41;69.82;98521.81;4992731;28;20022;-72
2021/08/16 07:13:34;;;;;;;9.52;2.92;;;;;;;21.60;67.27;98498.06;4978273;28;20064;-71
2021/08/16 07:16:00;;;;;;;8.18;3.25;;;;;;;21.85;65.86;98505.38;4984939;28;20402;-72
2021/08/16 07:18:25;;;;;;;6.05;3.13;;;;;;;21.52;67.61;98508.84;4990411;28;20085;-72
2021/08/16 07:20:50;;;;;;;6.47;2.95;;;;;;;22.94;63.02;98522.72;4992335;28;20041;-72
2021/08/16 07:23:15;;;;;;;8.02;2.70;;;;;;;24.30;57.23;98484.53;4977982;28;20401;-71
2021/08/16 07:25:41;;;;;;;6.65;3.08;;;;;;;27.42;49.38;98491.53;4991399;28;20029;-71
2021/08/16 07:28:06;;;;;;;5.65;2.70;;;;;;;28.71;45.58;98483.63;4994633;28;20026;-71
2021/08/16 07:30:32;;;;;;;4.10;2.40;;;;;;;29.00;42.90;98505.19;4988292;28;20033;-73
2021/08/16 07:33:01;;;;;;;7.43;3.28;;;;;;;28.77;42.79;98501.00;4985420;28;20026;-73
2021/08/16 07:35:26;;;;;;;6.28;2.72;;;;;;;29.20;40.90;98508.41;4975130;28;20122;-71
2021/08/16 07:37:53;;;;;;;6.05;2.75;;;;;;;27.49;44.73;98510.53;4998498;28;20062;-77
2021/08/16 07:40:20;;;;;;;5.32;2.72;;;;;;;29.75;40.38;98501.94;4995255;28;20310;-74
2021/08/16 07:42:46;;;;;;;5.43;2.90;;;;;;;30.49;38.06;98517.13;4977709;28;20065;-75
2021/08/16 07:45:12;;;;;;;7.00;2.85;;;;;;;29.73;38.75;98493.09;4997680;28;20026;-76
2021/08/16 07:47:38;;;;;;;7.47;2.30;;;;;;;30.32;37.46;98518.13;4998120;28;20033;-76
2021/08/16 07:50:09;;;;;;;5.03;2.45;;;;;;;30.54;36.50;98505.75;5003673;28;20034;-76
2021/08/16 07:52:35;;;;;;;6.45;2.60;;;;;;;28.41;41.06;98493.81;4966729;28;20023;-76
2021/08/16 07:55:01;;;;;;;6.85;2.50;;;;;;;27.90;41.75;98509.31;4994754;28;20556;-76
2021/08/16 07:57:26;;;;;;;8.40;2.50;;;;;;;28.92;40.53;98513.56;4992464;28;20101;-75
2021/08/16 07:59:51;;;;;;;6.10;2.70;;;;;;;30.27;38.16;98523.91;4989149;28;20054;-76
2021/08/16 08:02:17;;;;;;;7.10;2.95;;;;;;;31.04;36.65;98520.72;4973017;28;20027;-76
2021/08/16 08:04:42;;;;;;;8.27;2.58;;;;;;;32.47;34.86;98522.56;4981996;28;20109;-75
2021/08/16 08:07:07;;;;;;;7.68;2.95;;;;;;;32.28;34.70;98500.00;4987965;28;20527;-75
2021/08/16 08:09:33;;;;;;;5.22;2.45;;;;;;;29.95;36.55;98539.38;4977805;28;20396;-76
2021/08/16 08:11:58;;;;;;;8.02;3.25;;;;;;;28.42;40.18;98535.19;4979274;28;20023;-75
2021/08/16 08:14:24;;;;;;;8.00;2.83;;;;;;;25.99;44.71;98545.91;4973226;28;20026;-76
2021/08/16 08:16:50;;;;;;;7.28;2.95;;;;;;;24.31;49.19;98537.88;4985378;28;20030;-75
2021/08/16 08:19:15;;;;;;;6.93;3.05;;;;;;;23.57;52.52;98554.91;4970724;28;20150;-76
2021/08/16 08:21:40;;;;;;;8.70;2.95;;;;;;;23.22;53.61;98545.91;4984141;28;20040;-71
2021/08/16 08:24:05;;;;;;;6.63;3.22;;;;;;;22.87;55.42;98558.09;4989426;28;20053;-70
2021/08/16 08:26:31;;;;;;;7.22;3.30;;;;;;;22.77;56.37;98536.97;4991766;28;20117;-71
2021/08/16 08:28:56;;;;;;;9.93;3.17;;;;;;;22.68;57.07;98556.03;4988614;28;20176;-70
2021/08/16 08:31:21;;;;;;;7.95;3.35;;;;;;;22.44;57.67;98549.63;4989724;28;20022;-70
2021/08/16 08:33:48;;;;;;;6.75;3.03;;;;;;;22.14;57.90;98543.22;4991706;28;20022;-70
2021/08/16 08:36:13;;;;;;;10.27;3.10;;;;;;;22.05;58.96;98531.13;4974373;28;20025;-71
2021/08/16 08:38:38;;;;;;;9.57;3.30;;;;;;;22.25;58.82;98553.06;4990955;28;20026;-70
2021/08/16 08:41:05;;;;;;;6.63;3.17;;;;;;;22.15;58.64;98531.06;4980905;28;20019;-71
2021/08/16 08:43:33;;;;;;;10.85;3.38;;;;;;;22.23;58.81;98536.00;4995079;28;20495;-70
2021/08/16 08:46:00;;;;;;;7.45;3.08;;;;;;;22.18;58.41;98551.72;4989879;28;20106;-70
2021/08/16 08:48:26;;;;;;;7.90;3.30;;;;;;;22.28;60.00;98551.69;4980072;28;20028;-70
2021/08/16 08:50:52;;;;;;;10.15;3.25;;;;;;;22.36;59.46;98526.25;4984208;28;20030;-70
2021/08/16 08:53:18;;;;;;;10.73;3.35;;;;;;;22.58;59.12;98552.56;4991047;28;20069;-70
2021/08/16 08:55:44;;;;;;;7.43;3.33;;;;;;;22.69;58.41;98554.13;4995562;28;20081;-70
2021/08/16 08:58:10;;;;;;;7.15;3.30;;;;;;;22.71;59.32;98551.88;4994991;28;20062;-70
2021/08/16 09:00:36;;;;;;;7.60;3.53;;;;;;;22.64;58.59;98535.69;4975041;28;20035;-71
2021/08/16 09:03:03;;;;;;;12.35;3.67;;;;;;;22.41;57.89;98541.94;4991557;28;20455;-70
2021/08/16 09:05:30;;;;;;;8.02;3.20;;;;;;;22.42;58.18;98547.16;4994247;28;20028;-71
2021/08/16 09:07:58;;;;;;;6.85;3.22;;;;;;;22.71;57.39;98552.69;4977403;28;20030;-70
2021/08/16 09:10:24;;;;;;;10.13;3.35;;;;;;;22.82;56.73;98556.22;4994701;28;20030;-70
2021/08/16 09:12:54;;;;;;;6.68;3.28;;;;;;;23.56;54.97;98551.31;4977217;28;20112;-70
2021/08/16 09:15:23;;;;;;;5.78;3.00;;;;;;;25.13;50.48;98552.03;4983493;28;20030;-71
2021/08/16 09:17:50;;;;;;;7.72;3.10;;;;;;;24.46;50.09;98543.22;4979101;28;20519;-70
2021/08/16 09:20:20;;;;;;;8.73;3.30;;;;;;;25.20;49.24;98565.47;4986821;28;20031;-70
2021/08/16 09:22:58;;;;;;;6.15;2.97;;;;;;;26.23;47.65;98542.06;4990097;28;20084;-71
2021/08/16 09:25:26;;;;;;;6.97;3.03;;;;;;;25.82;46.96;98544.88;4989442;28;20480;-71
2021/08/16 09:27:51;;;;;;;5.57;2.78;;;;;;;25.67;47.82;98540.47;4973502;28;20052;-71
2021/08/16 09:30:30;;;;;;;8.00;2.97;;;;;;;24.96;48.88;98549.00;4969528;28;20353;-71
2021/08/16 09:32:55;;;;;;;6.72;2.95;;;;;;;24.74;50.05;98521.19;4987246;28;20073;-71
2021/08/16 09:35:21;;;;;;;5.28;2.72;;;;;;;24.53;50.40;98545.63;4981754;28;20030;-70
2021/08/16 09:37:56;;;;;;;8.30;3.10;;;;;;;26.62;46.13;98526.72;4991931;28;20031;-70
2021/08/16 09:40:22;;;;;;;7.10;2.83;;;;;;;30.22;39.81;98521.28;4986086;28;20066;-72
2021/08/16 09:42:49;;;;;;;6.88;2.90;;;;;;;29.53;40.36;98522.53;4988347;28;20695;-70
2021/08/16 09:45:31;;;;;;;4.93;2.45;;;;;;;30.17;38.14;98521.50;4990296;28;20030;-70
2021/08/16 09:47:58;;;;;;;4.72;2.60;;;;;;;29.43;38.83;98518.16;4990030;28;20565;-70
2021/08/16 09:50:45;;;;;;;5.32;2.47;;;;;;;28.25;40.83;98529.66;4986154;28;20841;-70
2021/08/16 09:53:13;;;;;;;4.78;2.38;;;;;;;28.39;39.46;98519.16;4988019;28;20074;-70
2021/08/16 09:55:41;;;;;;;5.73;2.40;;;;;;;28.15;39.18;98514.09;4973738;28;20057;-70
2021/08/16 09:58:08;;;;;;;5.25;2.83;;;;;;;27.16;41.63;98521.13;4986976;28;20290;-70
2021/08/16 10:00:34;;;;;;;6.30;2.70;;;;;;;27.95;41.11;98509.16;4983171;28;20030;-70
2021/08/16 10:03:00;;;;;;;5.65;2.70;;;;;;;27.86;41.17;98502.78;4989404;28;20097;-70
2021/08/16 10:05:26;;;;;;;5.05;2.60;;;;;;;28.83;38.02;98499.66;4988847;28;20065;-70
2021/08/16 10:07:52;;;;;;;5.93;2.55;;;;;;;27.97;39.44;98498.53;4982425;28;20085;-70
2021/08/16 10:10:18;;;;;;;4.63;2.30;;;;;;;28.80;38.07;98497.53;4991033;28;20475;-69
2021/08/16 10:12:45;;;;;;;6.45;2.70;;;;;;;29.89;37.75;98493.28;4966466;28;20118;-70
2021/08/16 10:15:11;;;;;;;5.43;2.42;;;;;;;28.82;38.54;98490.50;4989773;28;20593;-70
2021/08/16 10:17:39;;;;;;;4.95;2.50;;;;;;;30.68;36.71;98497.09;4990701;28;20033;-70
2021/08/16 10:20:07;;;;;;;6.55;2.70;;;;;;;32.18;34.37;98494.88;4986256;28;20086;-71
2021/08/16 10:22:40;;;;;;;3.85;2.53;;;;;;;32.20;33.61;98495.31;4989472;28;20030;-70
2021/08/16 10:25:13;;;;;;;4.82;2.30;;;;;;;29.51;37.62;98501.72;4986260;28;20034;-70
2021/08/16 10:27:38;;;;;;;4.82;2.20;;;;;;;28.02;38.52;98490.03;4979779;28;20022;-70
2021/08/16 10:30:09;;;;;;;3.97;2.35;;;;;;;26.96;42.60;98494.72;4983931;28;20408;-70
2021/08/16 10:32:34;;;;;;;5.25;2.28;;;;;;;25.79;43.28;98493.66;4970475;28;20046;-70
2021/08/16 10:35:07;;;;;;;5.20;2.40;;;;;;;24.90;46.54;98504.00;4990417;28;20066;-71
2021/08/16 10:37:41;;;;;;;6.28;2.75;;;;;;;23.53;48.08;98499.44;4973226;28;20554;-71
2021/08/16 10:40:17;;;;;;;5.30;2.40;;;;;;;23.89;47.08;98503.69;4983592;28;20049;-71
2021/08/16 10:42:43;;;;;;;4.85;2.55;;;;;;;22.71;47.84;98488.47;4983519;28;20030;-71
2021/08/16 10:45:09;;;;;;;9.00;2.38;;;;;;;23.14;48.44;98502.41;4989067;28;20069;-71
2021/08/16 10:47:36;;;;;;;7.32;2.05;;;;;;;23.56;47.90;98501.63;4989381;28;20396;-71
2021/08/16 10:50:21;;;;;;;7.03;2.53;;;;;;;22.92;48.18;98506.47;4987713;28;20467;-71
2021/08/16 10:52:48;;;;;;;6.38;2.78;;;;;;;22.67;49.08;98509.47;4989075;28;20034;-71
2021/08/16 10:55:15;;;;;;;5.85;2.25;;;;;;;22.41;49.21;98504.16;4976909;28;20121;-71
2021/08/16 10:57:42;;;;;;;5.30;2.20;;;;;;;22.12;48.78;98492.25;4983506;28;20034;-71
2021/08/16 11:00:09;;;;;;;6.65;2.65;;;;;;;22.34;49.30;98511.94;4983522;28;20031;-71
2021/08/16 11:02:36;;;;;;;4.53;2.45;;;;;;;22.27;49.64;98514.22;4989970;28;20038;-71
2021/08/16 11:05:06;;;;;;;7.28;2.58;;;;;;;22.40;49.08;98499.78;4988289;28;20069;-70
2021/08/16 11:07:31;;;;;;;7.38;2.58;;;;;;;22.57;49.74;98504.03;4973803;28;20088;-70
2021/08/16 11:09:59;;;;;;;6.68;2.30;;;;;;;22.50;48.76;98477.63;5004602;28;20011;-69
2021/08/16 11:12:42;;;;;;;6.68;2.38;;;;;;;23.86;45.92;98496.81;5008729;28;20050;-70
2021/08/16 11:15:09;;;;;;;7.07;2.20;;;;;;;24.78;46.43;98489.81;5001568;28;20065;-70
2021/08/16 11:17:34;;;;;;;8.07;2.45;;;;;;;24.98;42.89;98466.50;5000754;28;20022;-70
2021/08/16 11:20:15;;;;;;;5.50;2.25;;;;;;;25.65;42.32;98477.06;5004497;28;20093;-70
2021/08/16 11:22:45;;;;;;;4.07;1.85;;;;;;;27.47;39.05;98465.56;4997345;28;20033;-70